Rakitna Rakitna

Učna pot


Verjetnost toče več informacij Hail probability


Požarna ogroženost več informacij Fire risk


Moja kamera več informacij My webcam


Rakitna DRSI več informacij Rakitna DRSI


Obiščite še:

Template documentacija
in prenos

in še drugo stran



Nevihte Od: 17-01-2018 08:00 Do: 18:59 Opozorilo za: Nevihte Stopnja: Rumena info button

METAR v bližini

   
LJLJ - Ljubljana
Posodobljeno: 17-01-2018 04:00
oblačno  
oblačno  
   Veter: VSV 1.9 km/h
Veter: VSV 1.9 km/h
Temperatura: 3°C
Točka rosišča: 2°C
Vlažnost: 93%
Zračni tlak: 997 hPa
Oblaki: oblačno
Vidljivost: več kot 10 km
Podrobnosti o oblakih: oblačno 3300 ft
LJLJ 170300Z 07001KT 9999 OVC033 03/02 Q0997 NOSIG
LJCE - Cerklje ob Krki
Posodobljeno: 17-01-2018 04:00
oblačno  
oblačno  
   Veter: JZ 7.4 km/h
Veter: JZ 7.4 km/h
Temperatura: 6°C
Občutek mraza: 4°C
Točka rosišča: 3°C
Vlažnost: 81%
Zračni tlak: 997 hPa
Oblaki: oblačno
Vidljivost: več kot 10 km
Podrobnosti o oblakih: oblačno 3700 ft
LJCE 170300Z AUTO 23004KT 9999 OVC037/// 06/03 Q0997
LJMB - Maribor
Posodobljeno: 17-01-2018 04:00
oblačno  
oblačno  
   Veter: SSV 16.7 km/h
Veter: SSV 16.7 km/h
Temperatura: 3°C
Občutek mraza: -1°C
Točka rosišča: 0°C
Vlažnost: 81%
Zračni tlak: 997 hPa
Oblaki: oblačno
Vidljivost: več kot 10 km
Podrobnosti o oblakih: oblačno 4200 ft
LJMB 170300Z AUTO 03009KT 9999 OVC042/// 03/00 Q0997
LJPZ - Portorož
Posodobljeno: 17-01-2018 04:00
meglica, oblačno  
meglica, oblačno  
   Veter: Brezveterje
Veter: Brezveterje
Temperatura: 6°C
Točka rosišča: 5°C
Vlažnost: 93%
Zračni tlak: 998 hPa
Oblaki: oblačno
Vidljivost: 5 km
Podrobnosti o oblakih: delno oblačno 1400 ft,
oblačno 2000 ft
LJPZ 170300Z AUTO 00000KT 4800 BR SCT014/// OVC020/// 06/05 Q0998
LDRI - Rijeka, Airport, Croatia
Posodobljeno: 17-01-2018 04:30
oblačno  
oblačno  
   Veter: VJV 13 km/h
Veter: VJV 13 km/h
Temperatura: 11°C
Točka rosišča: 9°C
Vlažnost: 88%
Zračni tlak: 997 hPa
Oblaki: oblačno
Vidljivost: več kot 10 km
Podrobnosti o oblakih: nekaj oblakov 700 ft,
pretežno oblačno 2700 ft,
oblačno 4000 ft
LDRI 170330Z 12007KT 9999 FEW007 BKN027 OVC040 11/09 Q0997
LOWK - Klagenfurt, Airport, Avstia
Posodobljeno: 17-01-2018 04:20
nekaj oblakov  
nekaj oblakov  
   Veter: SSZ 3.7 km/h
Veter: SSZ 3.7 km/h
Temperatura: -2°C
Točka rosišča: -3°C
Vlažnost: 93%
Zračni tlak: 998 hPa
Oblaki: nekaj oblakov
Vidljivost: več kot 10 km
Podrobnosti o oblakih: nekaj oblakov 5000 ft
LOWK 170320Z AUTO 33002KT 9999 FEW050 M02/M03 Q0998

Script developed by  Saratoga-weather.org Adapted for the template by  Weerstation Leuven

Vremenski podatki so objavljeni na:

Weather Underground

WeatherlinkIP

MapView

Geostik

Slovenia weather network

Oprema, ki se uporablja:

Vremenska postaja
Davis VP2+ ventilirana

Vremenski program
WeatherLink

Vremenski server
Shuttle XS35V4

Ponudnik
Vremensko društvo ZEVS

Davis VP2+ ventilirana

WeatherLink

Shuttle XS35V4

Vremensko društvo ZEVS

Meteorološki podatki vremenske postaje Rakitna so neuradni, meteorološka postaja sama pa ni del državne mreže Agencije Republike Slovenije za okolje (ARSO),
je pa vključena v Vremensko društvo ZEVS. Prikazani podatki so izmerjeni točno, vendar so zgolj informativni in nimajo značaja uradnega podatka.

Podatke meri vremenska postaja "Davis VP2+ ventilirana" od 05.03.2011 dalje.

Opozarjamo, da ne prevzamemo odgovornosti za morebitno nastalo škodo, ki bi nastala zaradi odločitve, sprejete na osnovi teh podatkov!